createdAt,value
2023-06-28T00:00:54.625Z,18.44
2023-06-28T00:01:54.674Z,18.41
2023-06-28T00:02:54.634Z,18.39
2023-06-28T00:03:54.628Z,18.38
2023-06-28T00:04:54.567Z,18.39
2023-06-28T00:05:54.579Z,18.39
2023-06-28T00:06:54.615Z,18.36
2023-06-28T00:07:54.579Z,18.35
2023-06-28T00:08:54.518Z,18.34
2023-06-28T00:09:54.515Z,18.34
2023-06-28T00:10:54.505Z,18.35
2023-06-28T00:11:54.491Z,18.35
2023-06-28T00:12:54.492Z,18.35
2023-06-28T00:13:54.493Z,18.36
2023-06-28T00:14:54.450Z,18.35
2023-06-28T00:15:54.453Z,18.35
2023-06-28T00:16:54.413Z,18.35
2023-06-28T00:17:54.410Z,18.36
2023-06-28T00:18:54.390Z,18.36
2023-06-28T00:19:54.415Z,18.36
2023-06-28T00:20:54.424Z,18.38
2023-06-28T00:21:54.362Z,18.38
2023-06-28T00:22:54.347Z,18.35
2023-06-28T00:23:54.336Z,18.34
2023-06-28T00:24:54.309Z,18.36
2023-06-28T00:25:54.308Z,18.34
2023-06-28T00:26:54.290Z,18.35
2023-06-28T00:27:54.336Z,18.35
2023-06-28T00:28:54.267Z,18.31
2023-06-28T00:29:54.253Z,18.29
2023-06-28T00:30:54.240Z,18.29
2023-06-28T00:31:54.255Z,18.29
2023-06-28T00:32:54.252Z,18.29
2023-06-28T00:33:54.223Z,18.26
2023-06-28T00:34:54.202Z,18.25
2023-06-28T00:35:54.180Z,18.26
2023-06-28T00:36:54.183Z,18.28
2023-06-28T00:37:54.203Z,18.23
2023-06-28T00:38:54.141Z,18.21
2023-06-28T00:39:54.139Z,18.21
2023-06-28T00:40:54.120Z,18.20
2023-06-28T00:41:54.108Z,18.21
2023-06-28T00:42:54.096Z,18.25
2023-06-28T00:43:54.084Z,18.25
2023-06-28T00:44:54.081Z,18.25
2023-06-28T00:45:54.052Z,18.23
2023-06-28T00:46:54.038Z,18.23
2023-06-28T00:47:54.077Z,18.25
2023-06-28T00:48:54.016Z,18.25
2023-06-28T00:49:54.008Z,18.28
2023-06-28T00:50:53.996Z,18.28
2023-06-28T00:51:53.978Z,18.31
2023-06-28T00:52:53.964Z,18.23
2023-06-28T00:53:53.957Z,18.23
2023-06-28T00:54:53.936Z,18.20
2023-06-28T00:55:53.931Z,18.20
2023-06-28T00:56:53.913Z,18.17
2023-06-28T00:57:53.975Z,18.13
2023-06-28T00:58:53.879Z,18.09
2023-06-28T00:59:53.876Z,18.07
2023-06-28T01:00:53.858Z,18.07
2023-06-28T01:01:53.864Z,18.05
2023-06-28T01:02:53.906Z,18.05
2023-06-28T01:03:53.887Z,18.04
2023-06-28T01:04:53.812Z,18.01
2023-06-28T01:05:53.841Z,17.99
2023-06-28T01:06:53.815Z,17.98
2023-06-28T01:07:53.808Z,17.96
2023-06-28T01:08:53.749Z,17.92
2023-06-28T01:09:53.746Z,17.91
2023-06-28T01:10:53.761Z,17.89
2023-06-28T01:11:53.714Z,17.91
2023-06-28T01:12:53.734Z,17.92
2023-06-28T01:13:53.734Z,17.91
2023-06-28T01:14:53.677Z,17.94
2023-06-28T01:15:53.681Z,17.95
2023-06-28T01:16:53.678Z,17.95
2023-06-28T01:17:53.661Z,17.96
2023-06-28T01:18:53.649Z,17.95
2023-06-28T01:19:53.674Z,17.94
2023-06-28T01:20:53.592Z,17.94
2023-06-28T01:21:53.597Z,17.92
2023-06-28T01:22:53.598Z,17.92
2023-06-28T01:23:53.557Z,17.91
2023-06-28T01:24:53.582Z,17.89
2023-06-28T01:25:53.567Z,17.86
2023-06-28T01:26:53.513Z,17.80
2023-06-28T01:27:53.556Z,17.79
2023-06-28T01:28:53.496Z,17.77
2023-06-28T01:29:53.489Z,17.76
2023-06-28T01:30:53.463Z,17.73
2023-06-28T01:31:53.459Z,17.71
2023-06-28T01:32:53.509Z,17.71
2023-06-28T01:33:53.491Z,17.70
2023-06-28T01:34:53.414Z,17.68
2023-06-28T01:35:53.407Z,17.68
2023-06-28T01:36:53.397Z,17.65
2023-06-28T01:37:53.424Z,17.63
2023-06-28T01:38:53.381Z,17.62
2023-06-28T01:39:53.369Z,17.60
2023-06-28T01:40:53.347Z,17.57
2023-06-28T01:41:53.336Z,17.55
2023-06-28T01:42:53.337Z,17.54
2023-06-28T01:43:53.325Z,17.53
2023-06-28T01:44:53.288Z,17.55
2023-06-28T01:45:53.342Z,17.53
2023-06-28T01:46:53.298Z,17.54
2023-06-28T01:47:53.316Z,17.53
2023-06-28T01:48:53.234Z,17.49
2023-06-28T01:49:53.235Z,17.46
2023-06-28T01:50:53.268Z,17.45
2023-06-28T01:51:53.214Z,17.42
2023-06-28T01:52:53.203Z,17.40
2023-06-28T01:53:53.186Z,17.39
2023-06-28T01:54:53.160Z,17.36
2023-06-28T01:55:53.154Z,17.35
2023-06-28T01:56:53.135Z,17.33
2023-06-28T01:57:53.195Z,17.32
2023-06-28T01:58:53.106Z,17.28
2023-06-28T01:59:53.112Z,17.27
2023-06-28T02:00:53.085Z,17.25
2023-06-28T02:01:53.121Z,17.24
2023-06-28T02:02:53.135Z,17.22
2023-06-28T02:03:53.096Z,17.20
2023-06-28T02:04:53.025Z,17.20
2023-06-28T02:05:53.029Z,17.21
2023-06-28T02:06:53.038Z,17.21
2023-06-28T02:07:53.025Z,17.21
2023-06-28T02:08:53.000Z,17.21
2023-06-28T02:09:52.976Z,17.21
2023-06-28T02:10:52.955Z,17.18
2023-06-28T02:11:52.941Z,17.20
2023-06-28T02:12:52.935Z,17.21
2023-06-28T02:13:52.916Z,17.20
2023-06-28T02:14:52.940Z,17.20
2023-06-28T02:15:52.893Z,17.18
2023-06-28T02:16:52.956Z,17.15
2023-06-28T02:17:52.928Z,17.14
2023-06-28T02:18:52.848Z,17.09
2023-06-28T02:19:52.836Z,17.06
2023-06-28T02:20:52.847Z,17.09
2023-06-28T02:21:52.810Z,17.07
2023-06-28T02:22:52.813Z,17.06
2023-06-28T02:23:52.798Z,17.06
2023-06-28T02:24:52.783Z,17.05
2023-06-28T02:25:52.774Z,17.03
2023-06-28T02:26:52.751Z,17.03
2023-06-28T02:27:52.773Z,17.03
2023-06-28T02:28:52.720Z,17.05
2023-06-28T02:29:52.709Z,17.03
2023-06-28T02:30:52.772Z,17.03
2023-06-28T02:31:52.689Z,17.02
2023-06-28T02:32:52.692Z,17.00
2023-06-28T02:33:52.664Z,17.02
2023-06-28T02:34:52.636Z,17.02
2023-06-28T02:35:52.646Z,17.02
2023-06-28T02:36:52.610Z,17.00
2023-06-28T02:37:52.619Z,17.00
2023-06-28T02:38:52.588Z,17.00
2023-06-28T02:39:52.588Z,17.02
2023-06-28T02:40:52.557Z,17.05
2023-06-28T02:41:52.567Z,17.02
2023-06-28T02:42:52.585Z,17.00
2023-06-28T02:43:52.531Z,16.99
2023-06-28T02:44:52.504Z,17.00
2023-06-28T02:45:52.506Z,16.99
2023-06-28T02:46:52.566Z,16.99
2023-06-28T02:47:52.511Z,16.99
2023-06-28T02:48:52.449Z,17.00
2023-06-28T02:49:52.453Z,17.02
2023-06-28T02:50:52.448Z,17.02
2023-06-28T02:51:52.422Z,17.00
2023-06-28T02:52:52.432Z,16.99
2023-06-28T02:53:52.401Z,17.00
2023-06-28T02:54:52.403Z,17.00
2023-06-28T02:55:52.381Z,16.99
2023-06-28T02:56:52.365Z,16.99
2023-06-28T02:57:52.358Z,16.98
2023-06-28T02:58:52.337Z,16.99
2023-06-28T02:59:52.313Z,17.00
2023-06-28T03:00:52.325Z,16.98
2023-06-28T03:01:52.306Z,16.99
2023-06-28T03:02:52.361Z,16.98
2023-06-28T03:03:52.306Z,16.98
2023-06-28T03:04:52.246Z,16.99
2023-06-28T03:05:52.250Z,17.00
2023-06-28T03:06:52.256Z,17.03
2023-06-28T03:07:52.258Z,17.02
2023-06-28T03:08:52.205Z,17.02
2023-06-28T03:09:52.189Z,17.05
2023-06-28T03:10:52.175Z,17.03
2023-06-28T03:11:52.173Z,17.02
2023-06-28T03:12:52.152Z,17.03
2023-06-28T03:13:52.149Z,17.06
2023-06-28T03:14:52.123Z,17.07
2023-06-28T03:15:52.121Z,17.06
2023-06-28T03:16:52.078Z,17.06
2023-06-28T03:17:52.083Z,17.07
2023-06-28T03:18:52.104Z,17.09
2023-06-28T03:19:52.053Z,17.10
2023-06-28T03:20:52.031Z,17.09
2023-06-28T03:21:52.031Z,17.12
2023-06-28T03:22:52.020Z,17.10
2023-06-28T03:23:52.011Z,17.14
2023-06-28T03:24:52.012Z,17.17
2023-06-28T03:25:51.980Z,17.17
2023-06-28T03:26:51.975Z,17.17
2023-06-28T03:27:51.965Z,17.18
2023-06-28T03:28:51.947Z,17.17
2023-06-28T03:29:51.936Z,17.18
2023-06-28T03:30:51.914Z,17.21
2023-06-28T03:31:51.959Z,17.20
2023-06-28T03:32:51.957Z,17.20
2023-06-28T03:33:51.877Z,17.21
2023-06-28T03:34:51.864Z,17.20
2023-06-28T03:35:51.843Z,17.20
2023-06-28T03:37:02.823Z,17.20
2023-06-28T03:37:52.845Z,17.18
2023-06-28T03:38:51.806Z,17.20
2023-06-28T03:39:51.807Z,17.21
2023-06-28T03:40:51.781Z,17.24
2023-06-28T03:41:51.766Z,17.24
2023-06-28T03:42:52.469Z,17.21
2023-06-28T03:43:51.798Z,17.22
2023-06-28T03:44:51.729Z,17.22
2023-06-28T03:45:51.739Z,17.22
2023-06-28T03:46:51.723Z,17.21
2023-06-28T03:47:51.719Z,17.20
2023-06-28T03:48:51.696Z,17.18
2023-06-28T03:49:51.662Z,17.15
2023-06-28T03:50:51.649Z,17.15
2023-06-28T03:51:51.626Z,17.14
2023-06-28T03:52:51.631Z,17.17
2023-06-28T03:53:51.609Z,17.18
2023-06-28T03:54:51.594Z,17.21
2023-06-28T03:55:51.585Z,17.21
2023-06-28T03:56:51.584Z,17.20
2023-06-28T03:57:51.576Z,17.20
2023-06-28T03:58:51.573Z,17.20
2023-06-28T03:59:51.527Z,17.20
2023-06-28T04:00:51.517Z,17.18
2023-06-28T04:01:51.523Z,17.18
2023-06-28T04:02:51.637Z,17.21
2023-06-28T04:03:51.514Z,17.21
2023-06-28T04:04:51.471Z,17.21
2023-06-28T04:05:51.449Z,17.22
2023-06-28T04:06:51.459Z,17.22
2023-06-28T04:07:51.415Z,17.22
2023-06-28T04:08:51.458Z,17.21
2023-06-28T04:09:51.399Z,17.24
2023-06-28T04:10:51.384Z,17.25
2023-06-28T04:11:51.367Z,17.27
2023-06-28T04:12:51.363Z,17.25
2023-06-28T04:13:51.360Z,17.24
2023-06-28T04:14:51.403Z,17.25
2023-06-28T04:15:51.311Z,17.22
2023-06-28T04:16:51.306Z,17.24
2023-06-28T04:17:51.368Z,17.25
2023-06-28T04:18:51.343Z,17.30
2023-06-28T04:19:51.263Z,17.28
2023-06-28T04:20:51.260Z,17.25
2023-06-28T04:21:51.242Z,17.28
2023-06-28T04:22:51.224Z,17.28
2023-06-28T04:23:51.220Z,17.28
2023-06-28T04:24:51.216Z,17.28
2023-06-28T04:25:51.191Z,17.30
2023-06-28T04:26:51.189Z,17.32
2023-06-28T04:27:51.174Z,17.35
2023-06-28T04:28:58.937Z,17.35
2023-06-28T04:29:51.149Z,17.35
2023-06-28T04:30:51.129Z,17.36
2023-06-28T04:31:51.234Z,17.38
2023-06-28T04:32:51.161Z,17.39
2023-06-28T04:33:51.112Z,17.42
2023-06-28T04:34:51.075Z,17.43
2023-06-28T04:35:53.239Z,17.43
2023-06-28T04:36:57.362Z,17.45
2023-06-28T04:37:52.035Z,17.46
2023-06-28T04:38:51.032Z,17.47
2023-06-28T04:39:51.076Z,17.49
2023-06-28T04:40:51.012Z,17.54
2023-06-28T04:41:50.975Z,17.55
2023-06-28T04:42:51.013Z,17.60
2023-06-28T04:43:50.965Z,17.63
2023-06-28T04:44:50.968Z,17.63
2023-06-28T04:45:50.981Z,17.68
2023-06-28T04:46:50.948Z,17.71
2023-06-28T04:47:50.923Z,17.74
2023-06-28T04:48:50.933Z,17.76
2023-06-28T04:49:50.913Z,17.79
2023-06-28T04:50:50.912Z,17.81
2023-06-28T04:51:50.853Z,17.83
2023-06-28T04:52:50.852Z,17.81
2023-06-28T04:53:50.827Z,17.81
2023-06-28T04:54:50.813Z,17.84
2023-06-28T04:55:50.800Z,17.83
2023-06-28T04:56:50.796Z,17.84
2023-06-28T04:57:50.782Z,17.86
2023-06-28T04:58:50.797Z,17.87
2023-06-28T04:59:50.751Z,17.89
2023-06-28T05:00:50.851Z,17.91
2023-06-28T05:01:50.830Z,17.91
2023-06-28T05:02:50.886Z,17.91
2023-06-28T05:03:50.723Z,17.95
2023-06-28T05:04:50.713Z,17.94
2023-06-28T05:05:50.681Z,17.92
2023-06-28T05:06:50.704Z,17.94
2023-06-28T05:07:50.658Z,17.95
2023-06-28T05:08:50.661Z,17.95
2023-06-28T05:09:50.630Z,17.96
2023-06-28T05:10:50.642Z,17.99
2023-06-28T05:11:50.605Z,17.98
2023-06-28T05:12:50.595Z,17.99
2023-06-28T05:13:50.593Z,17.99
2023-06-28T05:14:50.566Z,18.02
2023-06-28T05:15:50.539Z,18.02
2023-06-28T05:16:50.568Z,18.04
2023-06-28T05:17:50.572Z,18.02
2023-06-28T05:18:50.518Z,18.04
2023-06-28T05:19:50.492Z,18.05
2023-06-28T05:20:50.480Z,18.05
2023-06-28T05:21:50.501Z,18.07
2023-06-28T05:22:50.478Z,18.04
2023-06-28T05:23:50.431Z,18.04
2023-06-28T05:24:50.449Z,18.07
2023-06-28T05:25:50.403Z,18.09
2023-06-28T05:26:50.443Z,18.11
2023-06-28T05:27:50.394Z,18.11
2023-06-28T05:28:50.385Z,18.13
2023-06-28T05:29:50.377Z,18.13
2023-06-28T05:30:50.402Z,18.13
2023-06-28T05:31:50.332Z,18.13
2023-06-28T05:32:50.343Z,18.13
2023-06-28T05:33:50.314Z,18.16
2023-06-28T05:34:50.342Z,18.16
2023-06-28T05:35:50.290Z,18.16
2023-06-28T05:36:50.272Z,18.17
2023-06-28T05:37:50.242Z,18.19
2023-06-28T05:38:50.251Z,18.20
2023-06-28T05:39:50.251Z,18.21
2023-06-28T05:40:50.238Z,18.23
2023-06-28T05:41:50.221Z,18.25
2023-06-28T05:42:50.210Z,18.25
2023-06-28T05:43:50.182Z,18.25
2023-06-28T05:44:50.181Z,18.25
2023-06-28T05:45:50.469Z,18.28
2023-06-28T05:46:50.335Z,18.25
2023-06-28T05:47:50.248Z,18.25
2023-06-28T05:48:50.167Z,18.25
2023-06-28T05:49:50.132Z,18.28
2023-06-28T05:50:50.304Z,18.26
2023-06-28T05:51:50.066Z,18.25
2023-06-28T05:52:50.073Z,18.25
2023-06-28T05:53:50.085Z,18.21
2023-06-28T05:54:50.050Z,18.19
2023-06-28T05:55:50.012Z,18.19
2023-06-28T05:56:50.052Z,18.17
2023-06-28T05:57:50.061Z,18.14
2023-06-28T05:58:50.085Z,18.10
2023-06-28T05:59:49.958Z,18.07
2023-06-28T06:00:50.151Z,18.07
2023-06-28T06:01:49.971Z,18.05
2023-06-28T06:02:49.991Z,18.07
2023-06-28T06:03:49.989Z,18.07
2023-06-28T06:04:49.959Z,18.10
2023-06-28T06:05:49.909Z,18.13
2023-06-28T06:06:49.923Z,18.13
2023-06-28T06:07:49.888Z,18.11
2023-06-28T06:08:49.868Z,18.13
2023-06-28T06:09:49.925Z,18.16
2023-06-28T06:10:49.838Z,18.17
2023-06-28T06:11:49.847Z,18.19
2023-06-28T06:12:49.852Z,18.21
2023-06-28T06:13:49.804Z,18.21
2023-06-28T06:14:49.821Z,18.21
2023-06-28T06:15:49.784Z,18.26
2023-06-28T06:16:49.806Z,18.28
2023-06-28T06:17:49.782Z,18.31
2023-06-28T06:18:49.738Z,18.32
2023-06-28T06:19:49.736Z,18.32
2023-06-28T06:20:49.874Z,18.34
2023-06-28T06:21:49.678Z,18.35
2023-06-28T06:22:49.708Z,18.38
2023-06-28T06:23:49.666Z,18.41
2023-06-28T06:24:49.665Z,18.41
2023-06-28T06:25:49.631Z,18.41
2023-06-28T06:26:49.640Z,18.41
2023-06-28T06:27:49.604Z,18.39
2023-06-28T06:28:49.602Z,18.39
2023-06-28T06:29:49.598Z,18.34
2023-06-28T06:30:49.888Z,18.32
2023-06-28T06:31:49.596Z,18.34
2023-06-28T06:32:49.635Z,18.36
2023-06-28T06:33:49.685Z,18.38
2023-06-28T06:34:49.518Z,18.39
2023-06-28T06:35:49.528Z,18.41
2023-06-28T06:36:49.530Z,18.47
2023-06-28T06:37:49.493Z,18.47
2023-06-28T06:38:49.481Z,18.51
2023-06-28T06:39:49.477Z,18.56
2023-06-28T06:40:49.497Z,18.57
2023-06-28T06:41:49.434Z,18.59
2023-06-28T06:42:49.448Z,18.60
2023-06-28T06:43:49.399Z,18.62
2023-06-28T06:44:49.403Z,18.60
2023-06-28T06:45:49.369Z,18.59
2023-06-28T06:46:49.368Z,18.59
2023-06-28T06:47:49.404Z,18.59
2023-06-28T06:48:49.404Z,18.57
2023-06-28T06:49:49.354Z,18.56
2023-06-28T06:50:49.317Z,18.53
2023-06-28T06:51:49.310Z,18.54
2023-06-28T06:52:49.303Z,18.53
2023-06-28T06:53:49.317Z,18.53
2023-06-28T06:54:49.273Z,18.56
2023-06-28T06:55:49.254Z,18.53
2023-06-28T06:56:49.256Z,18.54
2023-06-28T06:57:49.239Z,18.56
2023-06-28T06:58:49.225Z,18.53
2023-06-28T06:59:49.227Z,18.54
2023-06-28T07:00:49.196Z,18.57
2023-06-28T07:01:49.225Z,18.56
2023-06-28T07:02:49.241Z,18.59
2023-06-28T07:03:49.259Z,18.59
2023-06-28T07:04:49.190Z,18.60
2023-06-28T07:05:49.267Z,18.64
2023-06-28T07:06:49.197Z,18.65
2023-06-28T07:07:49.088Z,18.64
2023-06-28T07:08:49.087Z,18.64
2023-06-28T07:09:49.126Z,18.66
2023-06-28T07:10:49.068Z,18.68
2023-06-28T07:11:49.040Z,18.68
2023-06-28T07:12:49.030Z,18.71
2023-06-28T07:13:49.037Z,18.74
2023-06-28T07:14:49.048Z,18.75
2023-06-28T07:15:49.000Z,18.74
2023-06-28T07:16:48.987Z,18.74
2023-06-28T07:17:49.128Z,18.74
2023-06-28T07:18:49.092Z,18.76
2023-06-28T07:19:49.008Z,18.75
2023-06-28T07:20:48.933Z,18.76
2023-06-28T07:21:48.937Z,18.76
2023-06-28T07:22:48.914Z,18.78
2023-06-28T07:23:48.914Z,18.76
2023-06-28T07:24:48.893Z,18.75
2023-06-28T07:25:48.892Z,18.74
2023-06-28T07:26:48.877Z,18.74
2023-06-28T07:27:48.860Z,18.78
2023-06-28T07:28:48.843Z,18.82
2023-06-28T07:29:48.878Z,18.83
2023-06-28T07:30:48.857Z,18.83
2023-06-28T07:31:48.843Z,18.82
2023-06-28T07:32:48.840Z,18.83
2023-06-28T07:33:48.752Z,18.86
2023-06-28T07:34:48.787Z,18.83
2023-06-28T07:35:48.748Z,18.84
2023-06-28T07:36:48.744Z,18.84
2023-06-28T07:37:48.721Z,18.86
2023-06-28T07:38:48.704Z,18.86
2023-06-28T07:39:48.682Z,18.90
2023-06-28T07:40:48.674Z,18.91
2023-06-28T07:41:48.705Z,18.93
2023-06-28T07:42:48.676Z,18.94
2023-06-28T07:43:48.668Z,18.91
2023-06-28T07:44:48.635Z,18.93
2023-06-28T07:45:48.676Z,18.91
2023-06-28T07:46:48.617Z,18.93
2023-06-28T07:47:48.633Z,18.90
2023-06-28T07:48:48.569Z,18.91
2023-06-28T07:49:48.559Z,18.90
2023-06-28T07:50:48.552Z,18.84
2023-06-28T07:51:48.535Z,18.83
2023-06-28T07:52:48.556Z,18.87
2023-06-28T07:53:48.519Z,18.90
2023-06-28T07:54:48.492Z,18.93
2023-06-28T07:55:48.484Z,18.97
2023-06-28T07:56:48.466Z,19.02
2023-06-28T07:57:48.495Z,19.07
2023-06-28T07:58:48.451Z,19.12
2023-06-28T07:59:48.430Z,19.13
2023-06-28T08:00:48.435Z,19.13
2023-06-28T08:01:48.406Z,19.10
2023-06-28T08:02:48.481Z,19.09
2023-06-28T08:03:48.477Z,19.09
2023-06-28T08:04:48.364Z,19.12
2023-06-28T08:05:48.370Z,19.16
2023-06-28T08:06:48.407Z,19.20
2023-06-28T08:07:48.359Z,19.24
2023-06-28T08:08:48.332Z,19.28
2023-06-28T08:09:48.321Z,19.34
2023-06-28T08:10:48.286Z,19.34
2023-06-28T08:11:48.276Z,19.38
2023-06-28T08:12:48.262Z,19.34
2023-06-28T08:13:48.297Z,19.35
2023-06-28T08:14:48.229Z,19.38
2023-06-28T08:15:48.249Z,19.34
2023-06-28T08:16:48.225Z,19.34
2023-06-28T08:17:48.262Z,19.35
2023-06-28T08:18:48.179Z,19.32
2023-06-28T08:19:48.203Z,19.30
2023-06-28T08:20:48.157Z,19.30
2023-06-28T08:21:48.185Z,19.28
2023-06-28T08:22:48.127Z,19.25
2023-06-28T08:23:48.122Z,19.24
2023-06-28T08:24:48.097Z,19.23
2023-06-28T08:25:48.121Z,19.17
2023-06-28T08:26:48.078Z,19.20
2023-06-28T08:27:48.067Z,19.24
2023-06-28T08:28:59.380Z,19.27
2023-06-28T08:29:49.056Z,19.25
2023-06-28T08:30:48.127Z,19.24
2023-06-28T08:31:48.022Z,19.25
2023-06-28T08:32:48.049Z,19.27
2023-06-28T08:34:48.039Z,19.25
2023-06-28T08:35:47.991Z,19.27
2023-06-28T08:36:47.948Z,19.31
2023-06-28T08:37:47.944Z,19.34
2023-06-28T08:38:47.939Z,19.35
2023-06-28T08:39:47.962Z,19.39
2023-06-28T08:40:47.897Z,19.40
2023-06-28T08:41:47.929Z,19.43
2023-06-28T08:42:48.000Z,19.46
2023-06-28T08:43:47.868Z,19.49
2023-06-28T08:44:47.859Z,19.49
2023-06-28T08:45:47.852Z,19.50
2023-06-28T08:46:47.866Z,19.55
2023-06-28T08:47:47.901Z,19.58
2023-06-28T08:48:47.799Z,19.57
2023-06-28T08:49:47.790Z,19.55
2023-06-28T08:50:47.791Z,19.58
2023-06-28T08:51:47.778Z,19.58
2023-06-28T08:52:47.742Z,19.58
2023-06-28T08:53:47.742Z,19.52
2023-06-28T08:54:47.760Z,19.52
2023-06-28T08:55:47.730Z,19.53
2023-06-28T08:56:53.559Z,19.58
2023-06-28T08:57:48.699Z,19.57
2023-06-28T08:58:47.746Z,19.60
2023-06-28T08:59:47.702Z,19.62
2023-06-28T09:00:47.657Z,19.60
2023-06-28T09:01:47.709Z,19.62
2023-06-28T09:02:47.663Z,19.64
2023-06-28T09:03:47.635Z,19.65
2023-06-28T09:04:47.616Z,19.67
2023-06-28T09:05:47.600Z,19.65
2023-06-28T09:06:47.606Z,19.58
2023-06-28T09:07:47.574Z,19.55
2023-06-28T09:08:47.535Z,19.58
2023-06-28T09:09:47.561Z,19.60
2023-06-28T09:10:47.582Z,19.61
2023-06-28T09:11:47.527Z,19.57
2023-06-28T09:12:47.504Z,19.60
2023-06-28T09:13:47.520Z,19.61
2023-06-28T09:14:47.476Z,19.64
2023-06-28T09:15:47.463Z,19.65
2023-06-28T09:16:47.458Z,19.68
2023-06-28T09:17:47.518Z,19.67
2023-06-28T09:18:47.499Z,19.65
2023-06-28T09:19:47.410Z,19.67
2023-06-28T09:20:47.413Z,19.70
2023-06-28T09:21:47.402Z,19.76
2023-06-28T09:22:47.395Z,19.72
2023-06-28T09:23:47.406Z,19.75
2023-06-28T09:24:47.355Z,19.75
2023-06-28T09:25:47.374Z,19.76
2023-06-28T09:26:47.316Z,19.76
2023-06-28T09:27:47.323Z,19.76
2023-06-28T09:28:47.290Z,19.78
2023-06-28T09:29:47.310Z,19.80
2023-06-28T09:30:47.280Z,19.82
2023-06-28T09:31:47.296Z,19.85
2023-06-28T09:32:47.290Z,19.86
2023-06-28T09:33:47.267Z,19.89
2023-06-28T09:34:47.250Z,19.90
2023-06-28T09:35:47.250Z,19.98
2023-06-28T09:36:47.216Z,20.02
2023-06-28T09:37:47.206Z,20.05
2023-06-28T09:38:47.164Z,20.07
2023-06-28T09:39:47.171Z,20.07
2023-06-28T09:40:47.154Z,20.05
2023-06-28T09:41:47.147Z,20.07
2023-06-28T09:42:47.129Z,20.10
2023-06-28T09:43:47.116Z,20.12
2023-06-28T09:44:47.114Z,20.10
2023-06-28T09:45:47.311Z,20.13
2023-06-28T09:46:47.162Z,20.12
2023-06-28T09:47:47.127Z,20.10
2023-06-28T09:48:47.059Z,20.10
2023-06-28T09:49:47.050Z,20.07
2023-06-28T09:50:47.021Z,20.02
2023-06-28T09:51:47.016Z,20.02
2023-06-28T09:52:46.981Z,20.02
2023-06-28T09:53:46.997Z,20.02
2023-06-28T09:54:47.230Z,20.02
2023-06-28T09:55:47.083Z,20.00
2023-06-28T09:56:46.929Z,20.00
2023-06-28T09:57:46.941Z,19.98
2023-06-28T09:58:46.923Z,19.98
2023-06-28T09:59:46.935Z,19.97
2023-06-28T10:00:46.943Z,20.00
2023-06-28T10:01:46.901Z,20.00
2023-06-28T10:02:46.999Z,19.97
2023-06-28T10:03:47.130Z,20.00
2023-06-28T10:04:46.988Z,20.00
2023-06-28T10:05:46.885Z,20.01
2023-06-28T10:06:46.818Z,20.01
2023-06-28T10:07:46.832Z,20.01
2023-06-28T10:08:46.782Z,20.01
2023-06-28T10:09:46.796Z,20.02
2023-06-28T10:10:46.749Z,20.01
2023-06-28T10:11:46.789Z,20.01
2023-06-28T10:12:46.745Z,20.01
2023-06-28T10:13:46.728Z,20.05
2023-06-28T10:14:46.742Z,20.05
2023-06-28T10:15:46.727Z,20.05
2023-06-28T10:16:46.797Z,20.07
2023-06-28T10:17:46.804Z,20.12
2023-06-28T10:18:46.647Z,20.13
2023-06-28T10:19:46.665Z,20.13
2023-06-28T10:20:46.618Z,20.15
2023-06-28T10:21:46.638Z,20.19
2023-06-28T10:22:46.644Z,20.20
2023-06-28T10:23:46.612Z,20.23
2023-06-28T10:24:46.569Z,20.27
2023-06-28T10:25:46.870Z,20.31
2023-06-28T10:26:46.554Z,20.33
2023-06-28T10:27:46.542Z,20.35
2023-06-28T10:28:54.480Z,20.35
2023-06-28T10:29:46.517Z,20.34
2023-06-28T10:30:46.505Z,20.37
2023-06-28T10:31:48.655Z,20.38
2023-06-28T10:32:46.565Z,20.46
2023-06-28T10:33:46.470Z,20.46
2023-06-28T10:34:46.454Z,20.53
2023-06-28T10:35:46.468Z,20.56
2023-06-28T10:36:46.445Z,20.57
2023-06-28T10:37:47.936Z,20.60
2023-06-28T10:38:46.394Z,20.64
2023-06-28T10:39:46.385Z,20.64
2023-06-28T10:40:46.374Z,20.68
2023-06-28T10:41:46.378Z,20.71
2023-06-28T10:42:46.340Z,20.73
2023-06-28T10:43:46.362Z,20.76
2023-06-28T10:44:46.314Z,20.82
2023-06-28T10:45:46.323Z,20.85
2023-06-28T10:46:46.327Z,20.88
2023-06-28T10:47:46.290Z,20.96
2023-06-28T10:48:46.269Z,20.98
2023-06-28T10:49:47.255Z,21.03
2023-06-28T10:50:46.250Z,21.01
2023-06-28T10:51:46.237Z,20.97
2023-06-28T10:52:46.214Z,20.97
2023-06-28T10:53:46.283Z,20.94
2023-06-28T10:54:46.197Z,20.96
2023-06-28T10:55:46.176Z,20.94
2023-06-28T10:56:46.188Z,20.93
2023-06-28T10:57:46.184Z,20.94
2023-06-28T10:58:46.131Z,20.96
2023-06-28T10:59:46.156Z,20.94
2023-06-28T11:00:46.161Z,20.94
2023-06-28T11:01:46.127Z,20.93
2023-06-28T11:02:46.119Z,20.93
2023-06-28T11:03:46.159Z,20.94
2023-06-28T11:04:46.095Z,20.97
2023-06-28T11:05:46.585Z,20.96
2023-06-28T11:06:46.037Z,20.93
2023-06-28T11:07:46.047Z,20.96
2023-06-28T11:08:46.038Z,20.96
2023-06-28T11:09:46.030Z,21.01
2023-06-28T11:10:45.976Z,21.05
2023-06-28T11:11:46.032Z,21.08
2023-06-28T11:12:45.958Z,21.08
2023-06-28T11:13:45.970Z,21.11
2023-06-28T11:14:45.921Z,21.08
2023-06-28T11:15:45.932Z,21.05
2023-06-28T11:16:45.901Z,21.03
2023-06-28T11:17:46.001Z,21.03
2023-06-28T11:18:45.876Z,20.98
2023-06-28T11:19:45.897Z,21.01
2023-06-28T11:20:45.862Z,21.03
2023-06-28T11:21:45.856Z,21.01
2023-06-28T11:22:45.831Z,21.03
2023-06-28T11:23:45.853Z,21.06
2023-06-28T11:24:45.823Z,21.09
2023-06-28T11:25:45.800Z,21.13
2023-06-28T11:26:45.813Z,21.18
2023-06-28T11:27:45.763Z,21.22
2023-06-28T11:28:45.737Z,21.24
2023-06-28T11:29:45.753Z,21.28
2023-06-28T11:30:45.786Z,21.31
2023-06-28T11:31:45.725Z,21.36
2023-06-28T11:32:45.759Z,21.36
2023-06-28T11:33:45.722Z,21.40
2023-06-28T11:34:45.680Z,21.42
2023-06-28T11:35:45.659Z,21.42
2023-06-28T11:36:45.666Z,21.36
2023-06-28T11:37:45.649Z,21.34
2023-06-28T11:38:45.646Z,21.37
2023-06-28T11:39:45.616Z,21.38
2023-06-28T11:40:45.588Z,21.38
2023-06-28T11:41:45.596Z,21.36
2023-06-28T11:42:45.570Z,21.36
2023-06-28T11:43:45.582Z,21.38
2023-06-28T11:44:45.538Z,21.40
2023-06-28T11:45:45.529Z,21.37
2023-06-28T11:46:45.536Z,21.38
2023-06-28T11:47:45.554Z,21.43
2023-06-28T11:48:45.520Z,21.46
2023-06-28T11:49:45.528Z,21.51
2023-06-28T11:50:45.459Z,21.56
2023-06-28T11:51:45.468Z,21.59
2023-06-28T11:52:45.461Z,21.66
2023-06-28T11:53:45.431Z,21.71
2023-06-28T11:54:45.459Z,21.77
2023-06-28T11:55:45.490Z,21.83
2023-06-28T11:56:45.465Z,21.89
2023-06-28T11:57:45.383Z,21.91
2023-06-28T11:58:45.391Z,21.93
2023-06-28T11:59:45.394Z,21.89
2023-06-28T12:00:45.354Z,21.81
2023-06-28T12:01:45.343Z,21.77
2023-06-28T12:02:48.106Z,21.75
2023-06-28T12:03:45.353Z,21.74
2023-06-28T12:04:45.396Z,21.70
2023-06-28T12:05:45.289Z,21.67
2023-06-28T12:06:45.258Z,21.66
2023-06-28T12:07:45.251Z,21.64
2023-06-28T12:08:45.241Z,21.61
2023-06-28T12:09:45.220Z,21.59
2023-06-28T12:10:45.267Z,21.63
2023-06-28T12:11:45.216Z,21.66
2023-06-28T12:12:45.237Z,21.68
2023-06-28T12:13:45.177Z,21.70
2023-06-28T12:14:45.321Z,21.73
2023-06-28T12:15:45.154Z,21.71
2023-06-28T12:16:45.143Z,21.68
2023-06-28T12:17:45.466Z,21.67
2023-06-28T12:18:45.128Z,21.64
2023-06-28T12:19:45.091Z,21.67
2023-06-28T12:20:45.099Z,21.68
2023-06-28T12:21:45.081Z,21.68
2023-06-28T12:22:45.060Z,21.70
2023-06-28T12:23:45.092Z,21.71
2023-06-28T12:24:45.081Z,21.73
2023-06-28T12:25:45.074Z,21.74
2023-06-28T12:26:45.024Z,21.77
2023-06-28T12:27:44.986Z,21.81
2023-06-28T12:28:45.000Z,21.83
2023-06-28T12:29:44.967Z,21.85
2023-06-28T12:30:44.967Z,21.89
2023-06-28T12:31:44.974Z,21.90
2023-06-28T12:32:45.056Z,21.91
2023-06-28T12:33:44.927Z,21.93
2023-06-28T12:34:44.929Z,21.90
2023-06-28T12:35:44.884Z,21.90
2023-06-28T12:36:44.876Z,21.86
2023-06-28T12:37:44.851Z,21.85
2023-06-28T12:38:44.919Z,21.83
2023-06-28T12:39:44.860Z,21.83
2023-06-28T12:40:44.825Z,21.83
2023-06-28T12:41:44.825Z,21.85
2023-06-28T12:42:44.822Z,21.81
2023-06-28T12:43:44.801Z,21.81
2023-06-28T12:44:44.812Z,21.83
2023-06-28T12:45:44.778Z,21.83
2023-06-28T12:46:44.753Z,21.85
2023-06-28T12:47:44.783Z,21.83
2023-06-28T12:48:44.777Z,21.81
2023-06-28T12:49:44.719Z,21.79
2023-06-28T12:50:44.703Z,21.75
2023-06-28T12:51:44.680Z,21.75
2023-06-28T12:52:44.693Z,21.77
2023-06-28T12:53:44.651Z,21.77